createdAt,value
2019-04-27T00:00:44.232Z,35.60
2019-04-27T00:01:45.297Z,34.30
2019-04-27T00:02:44.179Z,35.50
2019-04-27T00:03:44.865Z,33.70
2019-04-27T00:04:44.125Z,37.20
2019-04-27T00:05:44.109Z,35.60
2019-04-27T00:06:46.392Z,35.60
2019-04-27T00:07:44.052Z,36.00
2019-04-27T00:08:44.018Z,36.10
2019-04-27T00:09:50.313Z,36.60
2019-04-27T00:10:43.965Z,35.30
2019-04-27T00:11:45.464Z,34.70
2019-04-27T00:12:43.913Z,36.70
2019-04-27T00:13:44.020Z,36.30
2019-04-27T00:14:43.979Z,36.40
2019-04-27T00:15:43.991Z,35.80
2019-04-27T00:16:46.912Z,35.60
2019-04-27T00:17:48.665Z,35.00
2019-04-27T00:18:45.457Z,36.40
2019-04-27T00:19:43.926Z,35.80
2019-04-27T00:20:43.699Z,35.60
2019-04-27T00:21:43.672Z,36.70
2019-04-27T00:22:43.659Z,37.20
2019-04-27T00:23:43.623Z,37.00
2019-04-27T00:24:44.160Z,36.20
2019-04-27T00:25:43.831Z,37.20
2019-04-27T00:26:45.560Z,36.10
2019-04-27T00:27:43.671Z,37.30
2019-04-27T00:28:43.520Z,38.00
2019-04-27T00:29:43.462Z,36.40
2019-04-27T00:30:43.868Z,36.30
2019-04-27T00:31:43.586Z,35.50
2019-04-27T00:32:43.414Z,36.90
2019-04-27T00:33:43.556Z,37.40
2019-04-27T00:34:43.328Z,36.00
2019-04-27T00:35:43.834Z,39.30
2019-04-27T00:36:43.592Z,38.90
2019-04-27T00:37:44.904Z,36.80
2019-04-27T00:38:43.632Z,38.90
2019-04-27T00:39:43.402Z,39.90
2019-04-27T00:40:43.683Z,39.00
2019-04-27T00:41:43.141Z,40.60
2019-04-27T00:42:44.148Z,39.90
2019-04-27T00:43:44.466Z,38.10
2019-04-27T00:44:43.104Z,39.40
2019-04-27T00:45:43.668Z,39.90
2019-04-27T00:46:43.206Z,40.50
2019-04-27T00:47:54.570Z,41.30
2019-04-27T00:48:43.364Z,41.40
2019-04-27T00:49:44.320Z,40.50
2019-04-27T00:50:43.866Z,41.20
2019-04-27T00:51:43.393Z,39.60
2019-04-27T00:52:43.025Z,41.30
2019-04-27T00:53:43.576Z,41.40
2019-04-27T00:54:44.120Z,41.80
2019-04-27T00:55:43.513Z,42.90
2019-04-27T00:56:42.988Z,42.40
2019-04-27T00:57:43.513Z,42.50
2019-04-27T00:58:43.044Z,44.70
2019-04-27T00:59:43.143Z,45.30
2019-04-27T01:00:44.008Z,45.50
2019-04-27T01:01:43.588Z,44.00
2019-04-27T01:02:43.558Z,43.80
2019-04-27T01:03:43.114Z,43.90
2019-04-27T01:04:42.866Z,43.30
2019-04-27T01:05:43.067Z,45.60
2019-04-27T01:06:43.760Z,44.40
2019-04-27T01:07:43.434Z,44.50
2019-04-27T01:08:42.772Z,44.70
2019-04-27T01:09:42.883Z,47.80
2019-04-27T01:10:43.556Z,48.10
2019-04-27T01:11:43.415Z,48.00
2019-04-27T01:12:42.930Z,47.70
2019-04-27T01:13:43.440Z,47.00
2019-04-27T01:14:42.769Z,48.10
2019-04-27T01:15:43.003Z,47.20
2019-04-27T01:16:42.203Z,48.20
2019-04-27T01:17:42.175Z,49.90
2019-04-27T01:18:42.149Z,47.60
2019-04-27T01:19:42.123Z,48.70
2019-04-27T01:20:42.094Z,48.30
2019-04-27T01:21:42.069Z,47.90
2019-04-27T01:22:42.042Z,47.70
2019-04-27T01:23:42.014Z,49.50
2019-04-27T01:24:41.988Z,47.80
2019-04-27T01:25:41.961Z,48.40
2019-04-27T01:26:41.939Z,49.30
2019-04-27T01:27:41.908Z,48.50
2019-04-27T01:28:41.881Z,49.70
2019-04-27T01:29:41.855Z,49.80
2019-04-27T01:30:41.828Z,49.60
2019-04-27T01:31:41.800Z,48.50
2019-04-27T01:32:41.772Z,50.20
2019-04-27T01:33:41.747Z,48.80
2019-04-27T01:34:41.720Z,50.90
2019-04-27T01:35:41.693Z,51.20
2019-04-27T01:36:41.666Z,48.60
2019-04-27T01:37:41.639Z,49.30
2019-04-27T01:38:41.613Z,48.40
2019-04-27T01:39:41.592Z,51.20
2019-04-27T01:40:41.560Z,49.50
2019-04-27T01:41:41.537Z,50.10
2019-04-27T01:42:41.510Z,50.20
2019-04-27T01:43:41.479Z,49.80
2019-04-27T01:44:41.455Z,50.70
2019-04-27T01:45:41.435Z,50.10
2019-04-27T01:46:41.399Z,47.70
2019-04-27T01:47:41.373Z,48.10
2019-04-27T01:48:41.344Z,50.40
2019-04-27T01:49:41.318Z,49.10
2019-04-27T01:50:41.294Z,49.60
2019-04-27T01:51:41.263Z,50.70
2019-04-27T01:52:41.238Z,50.50
2019-04-27T01:53:41.211Z,51.40
2019-04-27T01:54:41.222Z,48.10
2019-04-27T01:55:41.158Z,50.20
2019-04-27T01:56:41.130Z,47.90
2019-04-27T01:57:41.104Z,48.10
2019-04-27T01:58:41.075Z,50.20
2019-04-27T01:59:41.049Z,49.30
2019-04-27T02:00:41.022Z,49.50
2019-04-27T02:01:40.996Z,48.20
2019-04-27T02:02:40.971Z,47.80
2019-04-27T02:03:40.943Z,47.30
2019-04-27T02:04:40.917Z,47.00
2019-04-27T02:05:40.889Z,46.60
2019-04-27T02:06:40.862Z,48.70
2019-04-27T02:07:40.835Z,50.90
2019-04-27T02:08:40.810Z,49.00
2019-04-27T02:09:40.782Z,49.00
2019-04-27T02:10:40.756Z,49.20
2019-04-27T02:11:40.728Z,48.30
2019-04-27T02:12:43.654Z,48.90
2019-04-27T02:13:40.674Z,51.20
2019-04-27T02:14:40.650Z,49.00
2019-04-27T02:15:40.622Z,48.00
2019-04-27T02:16:40.595Z,46.50
2019-04-27T02:17:40.569Z,46.70
2019-04-27T02:18:40.543Z,47.40
2019-04-27T02:19:40.515Z,47.50
2019-04-27T02:20:40.487Z,45.50
2019-04-27T02:21:40.462Z,48.60
2019-04-27T02:22:40.437Z,47.00
2019-04-27T02:23:40.408Z,51.40
2019-04-27T02:24:40.383Z,51.50
2019-04-27T02:25:40.356Z,47.60
2019-04-27T02:26:40.329Z,47.50
2019-04-27T02:27:40.303Z,46.80
2019-04-27T02:28:40.275Z,46.70
2019-04-27T02:29:40.249Z,47.70
2019-04-27T02:30:40.906Z,47.80
2019-04-27T02:31:40.486Z,50.00
2019-04-27T02:32:40.172Z,55.50
2019-04-27T02:33:40.499Z,53.90
2019-04-27T02:34:40.118Z,51.60
2019-04-27T02:35:41.941Z,46.20
2019-04-27T02:36:40.064Z,44.40
2019-04-27T02:37:40.486Z,44.90
2019-04-27T02:38:40.613Z,47.40
2019-04-27T02:39:40.111Z,46.60
2019-04-27T02:40:42.605Z,44.80
2019-04-27T02:41:40.208Z,46.10
2019-04-27T02:42:42.211Z,47.90
2019-04-27T02:43:40.125Z,45.80
2019-04-27T02:44:40.698Z,46.50
2019-04-27T02:45:40.411Z,50.50
2019-04-27T02:46:39.835Z,51.00
2019-04-27T02:47:40.778Z,51.60
2019-04-27T02:48:55.604Z,50.90
2019-04-27T02:49:40.650Z,49.50
2019-04-27T02:50:40.097Z,50.40
2019-04-27T02:51:40.574Z,52.30
2019-04-27T02:52:40.487Z,54.00
2019-04-27T02:53:39.612Z,54.10
2019-04-27T02:54:40.083Z,51.70
2019-04-27T02:55:39.893Z,49.60
2019-04-27T02:56:40.518Z,50.90
2019-04-27T02:57:40.004Z,48.20
2019-04-27T02:58:40.657Z,49.60
2019-04-27T02:59:40.032Z,51.70
2019-04-27T03:00:40.179Z,50.30
2019-04-27T03:01:45.664Z,50.80
2019-04-27T03:02:40.228Z,50.40
2019-04-27T03:03:41.178Z,50.80
2019-04-27T03:04:40.139Z,51.70
2019-04-27T03:05:40.088Z,51.60
2019-04-27T03:06:39.962Z,52.90
2019-04-27T03:07:40.552Z,54.30
2019-04-27T03:08:42.265Z,52.40
2019-04-27T03:09:39.676Z,52.50
2019-04-27T03:10:40.035Z,54.20
2019-04-27T03:11:39.729Z,51.00
2019-04-27T03:12:41.981Z,54.30
2019-04-27T03:13:40.509Z,52.00
2019-04-27T03:14:40.325Z,49.50
2019-04-27T03:15:40.279Z,52.00
2019-04-27T03:16:39.564Z,51.70
2019-04-27T03:17:39.698Z,50.50
2019-04-27T03:18:40.354Z,49.20
2019-04-27T03:19:39.792Z,49.30
2019-04-27T03:20:40.319Z,49.70
2019-04-27T03:21:39.563Z,48.70
2019-04-27T03:22:39.790Z,49.60
2019-04-27T03:23:41.031Z,48.70
2019-04-27T03:24:39.454Z,49.20
2019-04-27T03:25:40.154Z,47.20
2019-04-27T03:26:39.044Z,48.20
2019-04-27T03:27:40.523Z,50.20
2019-04-27T03:28:40.167Z,49.30
2019-04-27T03:29:38.969Z,50.90
2019-04-27T03:30:42.633Z,48.00
2019-04-27T03:31:42.542Z,48.70
2019-04-27T03:32:42.537Z,48.20
2019-04-27T03:33:42.675Z,47.70
2019-04-27T03:34:41.839Z,46.80
2019-04-27T03:35:42.736Z,47.90
2019-04-27T03:36:39.581Z,47.80
2019-04-27T03:37:40.361Z,48.60
2019-04-27T03:38:39.661Z,47.40
2019-04-27T03:39:39.648Z,48.80
2019-04-27T03:40:40.348Z,48.90
2019-04-27T03:41:38.327Z,48.40
2019-04-27T03:42:40.323Z,47.40
2019-04-27T03:43:40.257Z,48.80
2019-04-27T03:44:39.883Z,47.70
2019-04-27T03:45:39.991Z,49.20
2019-04-27T03:46:39.709Z,47.20
2019-04-27T03:47:40.762Z,49.50
2019-04-27T03:48:40.621Z,46.10
2019-04-27T03:49:41.429Z,45.80
2019-04-27T03:50:39.830Z,47.90
2019-04-27T03:51:40.291Z,46.40
2019-04-27T03:52:39.717Z,46.70
2019-04-27T03:53:39.659Z,46.70
2019-04-27T03:54:40.054Z,48.80
2019-04-27T03:55:39.790Z,48.10
2019-04-27T03:56:39.583Z,48.30
2019-04-27T03:57:40.266Z,49.50
2019-04-27T03:58:39.622Z,49.90
2019-04-27T03:59:40.386Z,48.70
2019-04-27T04:00:39.882Z,48.60
2019-04-27T04:01:39.604Z,49.40
2019-04-27T04:02:40.060Z,50.20
2019-04-27T04:03:39.387Z,48.90
2019-04-27T04:04:40.374Z,49.10
2019-04-27T04:05:39.831Z,50.00
2019-04-27T04:06:39.950Z,46.30
2019-04-27T04:07:39.808Z,47.30
2019-04-27T04:08:39.718Z,47.10
2019-04-27T04:09:39.984Z,47.10
2019-04-27T04:10:39.105Z,47.40
2019-04-27T04:11:39.564Z,49.50
2019-04-27T04:12:39.775Z,48.40
2019-04-27T04:13:39.644Z,48.20
2019-04-27T04:14:37.455Z,48.70
2019-04-27T04:15:39.683Z,49.20
2019-04-27T04:16:39.389Z,50.40
2019-04-27T04:17:37.356Z,51.50
2019-04-27T04:18:39.640Z,50.90
2019-04-27T04:19:51.063Z,51.00
2019-04-27T04:20:37.275Z,50.10
2019-04-27T04:21:39.687Z,48.90
2019-04-27T04:22:37.222Z,51.00
2019-04-27T04:23:37.204Z,52.10
2019-04-27T04:24:39.564Z,52.00
2019-04-27T04:25:37.140Z,49.90
2019-04-27T04:26:39.948Z,53.10
2019-04-27T04:27:37.085Z,50.80
2019-04-27T04:28:37.057Z,52.40
2019-04-27T04:29:39.329Z,51.40
2019-04-27T04:30:37.005Z,51.80
2019-04-27T04:31:36.978Z,53.20
2019-04-27T04:32:39.271Z,52.00
2019-04-27T04:33:36.923Z,53.30
2019-04-27T04:34:36.898Z,53.20
2019-04-27T04:35:39.495Z,54.30
2019-04-27T04:36:36.849Z,52.30
2019-04-27T04:37:39.290Z,53.40
2019-04-27T04:38:36.789Z,53.40
2019-04-27T04:39:36.762Z,52.00
2019-04-27T04:40:36.733Z,53.60
2019-04-27T04:41:36.708Z,55.40
2019-04-27T04:42:36.680Z,54.10
2019-04-27T04:43:36.660Z,53.40
2019-04-27T04:44:36.625Z,55.10
2019-04-27T04:45:36.598Z,55.60
2019-04-27T04:46:36.572Z,56.60
2019-04-27T04:47:36.544Z,55.80
2019-04-27T04:48:36.517Z,56.70
2019-04-27T04:49:36.494Z,56.90
2019-04-27T04:50:36.463Z,57.70
2019-04-27T04:51:36.436Z,55.10
2019-04-27T04:52:36.412Z,58.00
2019-04-27T04:53:36.383Z,56.20
2019-04-27T04:54:36.357Z,56.80
2019-04-27T04:55:36.329Z,56.20
2019-04-27T04:56:36.302Z,56.60
2019-04-27T04:57:36.275Z,57.80
2019-04-27T04:58:36.249Z,57.80
2019-04-27T04:59:36.223Z,56.80
2019-04-27T05:00:36.195Z,56.70
2019-04-27T05:01:36.172Z,56.70
2019-04-27T05:02:36.142Z,56.00
2019-04-27T05:03:36.113Z,58.20
2019-04-27T05:04:36.087Z,56.50
2019-04-27T05:05:36.059Z,55.70
2019-04-27T05:06:36.033Z,55.40
2019-04-27T05:07:36.006Z,56.80
2019-04-27T05:08:35.982Z,56.50
2019-04-27T05:09:35.953Z,55.50
2019-04-27T05:10:35.926Z,55.70
2019-04-27T05:11:35.899Z,56.90
2019-04-27T05:12:35.875Z,54.30
2019-04-27T05:13:35.847Z,54.50
2019-04-27T05:14:35.821Z,57.10
2019-04-27T05:15:35.795Z,57.80
2019-04-27T05:16:35.767Z,56.60
2019-04-27T05:17:35.742Z,57.70
2019-04-27T05:18:35.714Z,56.40
2019-04-27T05:19:35.687Z,52.80
2019-04-27T05:20:35.661Z,54.40
2019-04-27T05:21:35.636Z,54.40
2019-04-27T05:22:35.609Z,55.50
2019-04-27T05:23:35.584Z,53.00
2019-04-27T05:24:35.556Z,50.80
2019-04-27T05:25:35.529Z,53.20
2019-04-27T05:26:35.505Z,52.80
2019-04-27T05:27:35.478Z,54.80
2019-04-27T05:28:35.452Z,53.60
2019-04-27T05:29:35.427Z,52.10
2019-04-27T05:30:35.402Z,54.50
2019-04-27T05:31:35.374Z,54.30
2019-04-27T05:32:35.348Z,57.40
2019-04-27T05:33:35.323Z,55.10
2019-04-27T05:34:35.297Z,54.40
2019-04-27T05:35:35.272Z,54.00
2019-04-27T05:36:35.245Z,53.40
2019-04-27T05:37:35.221Z,52.30
2019-04-27T05:38:35.194Z,52.90
2019-04-27T05:39:35.167Z,54.40
2019-04-27T05:40:35.142Z,51.10
2019-04-27T05:41:37.403Z,49.70
2019-04-27T05:42:35.091Z,52.20
2019-04-27T05:43:35.064Z,50.80
2019-04-27T05:44:35.044Z,51.40
2019-04-27T05:45:35.017Z,51.20
2019-04-27T05:46:35.622Z,52.30
2019-04-27T05:47:34.966Z,52.10
2019-04-27T05:48:34.941Z,49.10
2019-04-27T05:49:36.251Z,51.40
2019-04-27T05:50:38.830Z,50.90
2019-04-27T05:51:37.305Z,49.50
2019-04-27T05:52:34.844Z,51.30
2019-04-27T05:53:34.819Z,47.90
2019-04-27T05:54:34.792Z,48.30
2019-04-27T05:55:34.768Z,47.90
2019-04-27T05:56:34.745Z,46.70
2019-04-27T05:57:34.732Z,48.90
2019-04-27T05:58:34.699Z,47.20
2019-04-27T05:59:34.672Z,47.40
2019-04-27T06:00:34.652Z,47.90
2019-04-27T06:01:34.625Z,46.50
2019-04-27T06:02:34.603Z,47.20
2019-04-27T06:03:34.577Z,45.60
2019-04-27T06:04:34.553Z,47.50
2019-04-27T06:05:34.531Z,47.40
2019-04-27T06:06:34.507Z,46.60
2019-04-27T06:07:34.484Z,47.50
2019-04-27T06:08:34.459Z,46.60
2019-04-27T06:09:34.436Z,47.50
2019-04-27T06:10:34.413Z,47.40
2019-04-27T06:11:34.389Z,48.10
2019-04-27T06:12:34.364Z,47.10
2019-04-27T06:13:34.342Z,47.20
2019-04-27T06:14:34.318Z,48.60
2019-04-27T06:15:34.294Z,47.20
2019-04-27T06:16:34.270Z,46.80
2019-04-27T06:17:34.248Z,47.90
2019-04-27T06:18:34.224Z,45.90
2019-04-27T06:19:34.201Z,46.50
2019-04-27T06:20:34.177Z,46.00
2019-04-27T06:21:34.155Z,47.60
2019-04-27T06:22:34.131Z,47.90
2019-04-27T06:23:34.108Z,45.30
2019-04-27T06:24:34.083Z,48.30
2019-04-27T06:25:34.062Z,47.20
2019-04-27T06:26:34.038Z,45.00
2019-04-27T06:27:34.014Z,49.10
2019-04-27T06:28:33.991Z,48.00
2019-04-27T06:29:33.969Z,47.90
2019-04-27T06:30:33.947Z,47.40
2019-04-27T06:31:33.921Z,46.10
2019-04-27T06:32:33.900Z,48.00
2019-04-27T06:33:34.458Z,47.20
2019-04-27T06:34:33.855Z,45.50
2019-04-27T06:35:33.831Z,47.70
2019-04-27T06:36:33.806Z,46.40
2019-04-27T06:37:33.782Z,46.40
2019-04-27T06:38:33.765Z,45.00
2019-04-27T06:39:33.736Z,45.40
2019-04-27T06:40:35.452Z,45.70
2019-04-27T06:41:33.701Z,45.70
2019-04-27T06:42:33.676Z,45.70
2019-04-27T06:43:33.644Z,45.40
2019-04-27T06:44:33.629Z,45.90
2019-04-27T06:45:33.600Z,45.30
2019-04-27T06:46:33.578Z,45.20
2019-04-27T06:47:33.555Z,44.10
2019-04-27T06:48:33.534Z,44.40
2019-04-27T06:49:33.510Z,45.80
2019-04-27T06:50:33.491Z,44.10
2019-04-27T06:51:33.466Z,44.70
2019-04-27T06:52:33.441Z,42.80
2019-04-27T06:53:33.420Z,43.00
2019-04-27T06:54:33.398Z,42.90
2019-04-27T06:55:33.375Z,45.40
2019-04-27T06:56:33.353Z,42.70
2019-04-27T06:57:33.331Z,44.00
2019-04-27T06:58:33.308Z,44.50
2019-04-27T06:59:33.285Z,43.00
2019-04-27T07:00:33.265Z,45.20
2019-04-27T07:01:33.243Z,44.30
2019-04-27T07:02:33.221Z,42.70
2019-04-27T07:03:33.199Z,44.20
2019-04-27T07:04:33.179Z,44.80
2019-04-27T07:05:33.159Z,43.00
2019-04-27T07:06:33.134Z,43.20
2019-04-27T07:07:33.131Z,42.70
2019-04-27T07:08:33.089Z,42.40
2019-04-27T07:09:33.068Z,43.10
2019-04-27T07:10:33.048Z,42.80
2019-04-27T07:11:33.025Z,40.90
2019-04-27T07:12:33.003Z,42.10
2019-04-27T07:13:32.982Z,40.20
2019-04-27T07:14:32.962Z,41.70
2019-04-27T07:15:32.944Z,42.30
2019-04-27T07:16:32.921Z,40.30
2019-04-27T07:17:32.901Z,40.10
2019-04-27T07:18:32.880Z,38.90
2019-04-27T07:19:32.859Z,38.90
2019-04-27T07:20:32.840Z,38.90
2019-04-27T07:21:32.822Z,39.30
2019-04-27T07:22:32.801Z,37.90
2019-04-27T07:23:32.780Z,36.80
2019-04-27T07:24:32.762Z,38.80
2019-04-27T07:25:32.743Z,36.80
2019-04-27T07:26:32.725Z,38.30
2019-04-27T07:27:32.704Z,37.60
2019-04-27T07:28:32.687Z,36.70
2019-04-27T07:29:32.667Z,36.10
2019-04-27T07:30:32.649Z,37.00
2019-04-27T07:31:32.633Z,36.60
2019-04-27T07:32:32.611Z,34.90
2019-04-27T07:33:32.594Z,37.50
2019-04-27T07:34:32.577Z,36.50
2019-04-27T07:35:32.558Z,37.30
2019-04-27T07:36:32.540Z,36.10
2019-04-27T07:37:32.520Z,35.00
2019-04-27T07:38:32.504Z,33.80
2019-04-27T07:39:32.487Z,35.40
2019-04-27T07:40:32.476Z,36.30
2019-04-27T07:41:32.452Z,33.30
2019-04-27T07:42:34.088Z,33.30
2019-04-27T07:43:32.418Z,35.50
2019-04-27T07:44:32.400Z,32.50
2019-04-27T07:45:32.385Z,32.30
2019-04-27T07:46:32.369Z,32.60
2019-04-27T07:47:32.354Z,32.70
2019-04-27T07:48:32.334Z,32.20
2019-04-27T07:49:32.317Z,31.50
2019-04-27T07:50:32.302Z,31.40
2019-04-27T07:51:34.412Z,30.80
2019-04-27T07:52:32.267Z,31.30
2019-04-27T07:53:32.251Z,29.90
2019-04-27T07:54:32.236Z,29.60
2019-04-27T07:55:32.218Z,28.60
2019-04-27T07:56:32.202Z,28.60
2019-04-27T07:57:32.186Z,29.30
2019-04-27T07:58:32.171Z,29.00
2019-04-27T07:59:32.154Z,29.90
2019-04-27T08:00:32.139Z,29.30
2019-04-27T08:01:32.123Z,28.70
2019-04-27T08:02:32.108Z,29.30
2019-04-27T08:03:32.092Z,30.10
2019-04-27T08:04:32.076Z,30.50
2019-04-27T08:05:32.061Z,29.10
2019-04-27T08:06:32.044Z,28.40
2019-04-27T08:07:32.033Z,28.80
2019-04-27T08:08:32.013Z,28.00
2019-04-27T08:09:31.998Z,28.00
2019-04-27T08:10:31.981Z,27.40
2019-04-27T08:11:31.964Z,27.30
2019-04-27T08:12:31.951Z,27.00
2019-04-27T08:13:31.933Z,27.30
2019-04-27T08:14:31.915Z,26.80
2019-04-27T08:15:31.899Z,27.20
2019-04-27T08:16:31.885Z,26.90
2019-04-27T08:17:31.868Z,25.90
2019-04-27T08:18:31.852Z,27.10
2019-04-27T08:19:31.834Z,26.90
2019-04-27T08:20:31.818Z,26.40
2019-04-27T08:21:43.110Z,26.30
2019-04-27T08:22:31.783Z,25.70
2019-04-27T08:23:31.766Z,24.70
2019-04-27T08:24:31.749Z,26.20
2019-04-27T08:25:31.733Z,25.80
2019-04-27T08:26:31.716Z,25.60
2019-04-27T08:27:31.700Z,23.70
2019-04-27T08:28:31.680Z,24.80
2019-04-27T08:29:33.013Z,25.90
2019-04-27T08:30:31.645Z,23.50
2019-04-27T08:31:31.627Z,25.30
2019-04-27T08:32:31.611Z,25.30
2019-04-27T08:33:31.594Z,25.00
2019-04-27T08:34:31.575Z,22.10
2019-04-27T08:35:32.768Z,21.80
2019-04-27T08:36:31.540Z,20.30
2019-04-27T08:37:31.524Z,20.00
2019-04-27T08:38:31.506Z,21.00
2019-04-27T08:39:31.486Z,20.80
2019-04-27T08:40:31.480Z,22.40
2019-04-27T08:41:31.452Z,23.00
2019-04-27T08:42:31.434Z,23.70
2019-04-27T08:43:31.417Z,22.00
2019-04-27T08:44:31.791Z,23.20
2019-04-27T08:45:31.382Z,23.60
2019-04-27T08:46:31.364Z,22.60
2019-04-27T08:47:31.346Z,21.90
2019-04-27T08:48:36.910Z,22.60
2019-04-27T08:49:31.314Z,21.60
2019-04-27T08:50:31.296Z,21.30
2019-04-27T08:51:31.281Z,19.40
2019-04-27T08:52:31.264Z,19.70
2019-04-27T08:53:31.248Z,19.00
2019-04-27T08:54:31.231Z,19.80
2019-04-27T08:55:31.214Z,18.90
2019-04-27T08:56:31.201Z,19.20
2019-04-27T08:57:31.183Z,21.10
2019-04-27T08:58:31.167Z,20.00
2019-04-27T08:59:31.150Z,20.20
2019-04-27T09:00:31.135Z,19.70
2019-04-27T09:01:31.119Z,18.30
2019-04-27T09:02:41.743Z,18.20
2019-04-27T09:03:31.087Z,16.60
2019-04-27T09:04:31.070Z,17.00
2019-04-27T09:05:31.056Z,16.80
2019-04-27T09:06:31.241Z,14.10
2019-04-27T09:07:31.805Z,14.20
2019-04-27T09:08:31.008Z,16.10
2019-04-27T09:09:30.993Z,15.70
2019-04-27T09:10:30.977Z,16.50
2019-04-27T09:11:30.962Z,16.30
2019-04-27T09:12:30.944Z,15.90
2019-04-27T09:13:30.927Z,17.20
2019-04-27T09:14:30.911Z,18.20
2019-04-27T09:15:30.895Z,17.10
2019-04-27T09:16:30.879Z,16.90
2019-04-27T09:17:31.092Z,14.80
2019-04-27T09:18:32.395Z,16.00
2019-04-27T09:19:30.832Z,15.80
2019-04-27T09:20:30.816Z,15.50
2019-04-27T09:21:30.802Z,14.80
2019-04-27T09:22:30.787Z,15.40
2019-04-27T09:23:30.772Z,15.80
2019-04-27T09:24:30.754Z,15.10
2019-04-27T09:25:30.738Z,13.80
2019-04-27T09:26:30.724Z,13.20
2019-04-27T09:27:30.707Z,12.40
2019-04-27T09:28:30.693Z,12.40
2019-04-27T09:29:30.677Z,12.50
2019-04-27T09:30:30.662Z,13.60
2019-04-27T09:31:30.647Z,12.00
2019-04-27T09:32:30.631Z,12.00
2019-04-27T09:33:30.616Z,10.30
2019-04-27T09:34:30.602Z,10.70
2019-04-27T09:35:30.585Z,10.80
2019-04-27T09:36:30.569Z,10.10
2019-04-27T09:37:30.554Z,10.40
2019-04-27T09:38:30.539Z,9.70
2019-04-27T09:39:30.523Z,8.80
2019-04-27T09:40:30.507Z,8.30
2019-04-27T09:41:30.493Z,8.60
2019-04-27T09:42:30.477Z,8.60
2019-04-27T09:43:30.461Z,8.50
2019-04-27T09:44:30.445Z,8.40
2019-04-27T09:45:30.439Z,8.50
2019-04-27T09:46:30.433Z,8.50
2019-04-27T09:47:30.399Z,8.70
2019-04-27T09:48:30.415Z,8.60
2019-04-27T09:49:30.364Z,9.20
2019-04-27T09:50:30.352Z,8.80
2019-04-27T09:51:30.333Z,8.60
2019-04-27T09:52:30.317Z,9.00
2019-04-27T09:53:30.304Z,8.20
2019-04-27T09:54:30.287Z,8.10
2019-04-27T09:55:30.268Z,8.30
2019-04-27T09:56:30.254Z,7.60
2019-04-27T09:57:30.239Z,8.00
2019-04-27T09:58:30.222Z,7.60
2019-04-27T09:59:30.211Z,7.40
2019-04-27T10:00:30.192Z,6.90
2019-04-27T10:01:30.176Z,7.20
2019-04-27T10:02:30.160Z,6.90
2019-04-27T10:03:30.144Z,6.50
2019-04-27T10:04:30.134Z,6.00
2019-04-27T10:05:30.113Z,6.50
2019-04-27T10:06:30.170Z,6.20
2019-04-27T10:07:30.081Z,6.60
2019-04-27T10:08:30.066Z,6.20
2019-04-27T10:09:30.051Z,6.00
2019-04-27T10:10:30.035Z,6.50
2019-04-27T10:11:30.018Z,7.00
2019-04-27T10:12:30.002Z,6.80
2019-04-27T10:13:29.987Z,6.50
2019-04-27T10:14:29.971Z,7.10
2019-04-27T10:15:29.956Z,6.40
2019-04-27T10:16:29.937Z,6.30
2019-04-27T10:17:29.924Z,6.10
2019-04-27T10:18:29.907Z,5.90
2019-04-27T10:19:32.952Z,6.40
2019-04-27T10:20:29.875Z,7.10
2019-04-27T10:21:29.862Z,6.10
2019-04-27T10:22:40.569Z,5.70
2019-04-27T10:23:29.834Z,6.10
2019-04-27T10:24:29.815Z,6.00
2019-04-27T10:25:29.804Z,6.20
2019-04-27T10:26:29.787Z,5.50
2019-04-27T10:27:29.773Z,6.00
2019-04-27T10:28:29.756Z,7.40
2019-04-27T10:29:29.747Z,7.10
2019-04-27T10:30:29.728Z,6.30
2019-04-27T10:31:29.795Z,6.10
2019-04-27T10:32:29.698Z,6.40
2019-04-27T10:33:29.684Z,6.70
2019-04-27T10:34:29.671Z,6.50
2019-04-27T10:35:29.660Z,6.70
2019-04-27T10:36:29.640Z,6.00
2019-04-27T10:37:29.626Z,5.70
2019-04-27T10:38:29.635Z,5.70
2019-04-27T10:39:29.597Z,5.90
2019-04-27T10:40:29.584Z,5.50
2019-04-27T10:41:29.570Z,6.20
2019-04-27T10:42:29.555Z,5.30
2019-04-27T10:43:29.539Z,5.70
2019-04-27T10:44:29.524Z,7.20
2019-04-27T10:45:29.513Z,7.60
2019-04-27T10:46:29.497Z,6.00
2019-04-27T10:47:29.480Z,5.70
2019-04-27T10:48:29.467Z,6.00
2019-04-27T10:49:29.454Z,5.50
2019-04-27T10:50:29.439Z,5.20
2019-04-27T10:51:29.423Z,5.70
2019-04-27T10:52:29.412Z,6.40
2019-04-27T10:53:29.394Z,6.00
2019-04-27T10:54:29.382Z,6.60
2019-04-27T10:55:29.381Z,6.20
2019-04-27T10:56:29.353Z,6.60
2019-04-27T10:57:29.338Z,7.00
2019-04-27T10:58:29.325Z,7.00
2019-04-27T10:59:29.311Z,6.30
2019-04-27T11:00:29.299Z,5.90
2019-04-27T11:01:29.284Z,6.60
2019-04-27T11:02:29.267Z,7.00
2019-04-27T11:03:29.253Z,7.50
2019-04-27T11:04:29.237Z,6.90
2019-04-27T11:05:31.209Z,6.80
2019-04-27T11:06:29.208Z,7.90
2019-04-27T11:07:29.195Z,6.60
2019-04-27T11:08:29.177Z,5.40
2019-04-27T11:09:29.161Z,5.60
2019-04-27T11:10:29.145Z,5.30
2019-04-27T11:11:29.153Z,5.00
2019-04-27T11:12:29.113Z,4.90
2019-04-27T11:13:29.100Z,5.10
2019-04-27T11:14:29.081Z,5.50
2019-04-27T11:15:29.064Z,4.70
2019-04-27T11:16:29.051Z,4.50
2019-04-27T11:17:29.034Z,4.30
2019-04-27T11:18:29.016Z,4.40
2019-04-27T11:19:28.999Z,4.90
2019-04-27T11:20:28.982Z,2.80
2019-04-27T11:21:28.972Z,2.80
2019-04-27T11:22:28.950Z,2.90
2019-04-27T11:23:28.932Z,2.50
2019-04-27T11:24:28.916Z,2.70
2019-04-27T11:25:28.900Z,3.30
2019-04-27T11:26:28.888Z,2.70
2019-04-27T11:27:28.866Z,2.90
2019-04-27T11:28:28.850Z,3.30
2019-04-27T11:29:28.834Z,2.80
2019-04-27T11:30:28.817Z,3.10
2019-04-27T11:31:28.801Z,2.70
2019-04-27T11:32:28.785Z,3.20
2019-04-27T11:33:28.768Z,3.40
2019-04-27T11:34:28.753Z,3.50
2019-04-27T11:35:28.734Z,3.50
2019-04-27T11:36:28.717Z,3.10
2019-04-27T11:37:28.702Z,2.80
2019-04-27T11:38:28.685Z,2.90
2019-04-27T11:39:28.665Z,3.00
2019-04-27T11:40:28.647Z,3.20
2019-04-27T11:41:28.632Z,3.20
2019-04-27T11:42:28.614Z,3.00
2019-04-27T11:43:28.596Z,3.00
2019-04-27T11:44:28.580Z,3.00
2019-04-27T11:45:28.635Z,2.80
2019-04-27T11:46:28.545Z,3.10
2019-04-27T11:47:28.528Z,2.70
2019-04-27T11:48:28.510Z,2.70
2019-04-27T11:49:28.494Z,2.60
2019-04-27T11:50:28.477Z,2.60
2019-04-27T11:51:28.459Z,2.10
2019-04-27T11:52:28.441Z,2.70
2019-04-27T11:53:28.426Z,2.30
2019-04-27T11:54:28.408Z,2.10
2019-04-27T11:55:28.389Z,2.20
2019-04-27T11:56:28.390Z,2.30
2019-04-27T11:57:28.359Z,2.30
2019-04-27T11:58:28.340Z,2.50
2019-04-27T11:59:28.324Z,2.60
2019-04-27T12:00:28.306Z,3.00
2019-04-27T12:01:28.289Z,2.90
2019-04-27T12:02:28.273Z,2.70
2019-04-27T12:03:28.254Z,2.90
2019-04-27T12:04:28.239Z,2.80
2019-04-27T12:05:28.224Z,2.70
2019-04-27T12:06:28.204Z,2.50
2019-04-27T12:07:28.184Z,2.30
2019-04-27T12:08:28.168Z,2.40
2019-04-27T12:09:28.151Z,2.50
2019-04-27T12:10:28.135Z,2.60
2019-04-27T12:11:28.116Z,2.60
2019-04-27T12:12:28.104Z,2.40
2019-04-27T12:13:28.083Z,2.60
2019-04-27T12:14:28.066Z,2.40
2019-04-27T12:15:28.049Z,2.70
2019-04-27T12:16:28.031Z,2.70
2019-04-27T12:17:29.270Z,3.20
2019-04-27T12:18:27.998Z,2.10
2019-04-27T12:19:27.979Z,2.40
2019-04-27T12:20:27.961Z,2.50
2019-04-27T12:21:27.948Z,2.10
2019-04-27T12:22:27.930Z,1.90
2019-04-27T12:23:35.569Z,2.10
2019-04-27T12:24:27.900Z,2.40
2019-04-27T12:25:27.878Z,2.50
2019-04-27T12:26:27.862Z,2.20
2019-04-27T12:27:27.844Z,2.70
2019-04-27T12:28:27.827Z,2.30
2019-04-27T12:29:27.810Z,2.20
2019-04-27T12:30:27.798Z,2.30
2019-04-27T12:31:27.779Z,2.10
2019-04-27T12:32:27.763Z,2.10
2019-04-27T12:33:27.857Z,2.10
2019-04-27T12:34:27.935Z,2.30
2019-04-27T12:35:27.714Z,1.90
2019-04-27T12:36:27.698Z,1.90
2019-04-27T12:37:27.681Z,2.10
2019-04-27T12:38:28.330Z,2.10
2019-04-27T12:39:27.648Z,2.20
2019-04-27T12:40:27.631Z,2.00
2019-04-27T12:41:27.616Z,1.90
2019-04-27T12:42:27.597Z,1.80
2019-04-27T12:43:27.580Z,2.00
2019-04-27T12:44:27.564Z,1.90
2019-04-27T12:45:27.548Z,2.00
2019-04-27T12:46:27.531Z,1.50
2019-04-27T12:47:27.514Z,1.70
2019-04-27T12:48:27.497Z,1.80
2019-04-27T12:49:27.484Z,2.10
2019-04-27T12:50:27.466Z,1.80
2019-04-27T12:51:27.448Z,2.10
2019-04-27T12:52:27.430Z,1.80
2019-04-27T12:53:27.414Z,1.70
2019-04-27T12:54:27.399Z,1.70
2019-04-27T12:55:27.380Z,1.70
2019-04-27T12:56:27.366Z,1.60
2019-04-27T12:57:27.348Z,1.30
2019-04-27T12:58:27.331Z,1.70
2019-04-27T12:59:27.315Z,1.60